createdAt,value
2022-08-07T00:00:26.602Z,18.70
2022-08-07T00:02:56.057Z,18.70
2022-08-07T00:05:26.522Z,18.70
2022-08-07T00:08:00.318Z,18.70
2022-08-07T00:10:31.431Z,18.50
2022-08-07T00:13:09.939Z,18.50
2022-08-07T00:15:51.781Z,18.40
2022-08-07T00:18:24.667Z,18.20
2022-08-07T00:20:56.790Z,18.20
2022-08-07T00:23:28.290Z,18.10
2022-08-07T00:26:00.140Z,17.90
2022-08-07T00:28:33.377Z,17.80
2022-08-07T00:31:04.553Z,17.60
2022-08-07T00:33:34.887Z,17.50
2022-08-07T00:36:05.027Z,17.40
2022-08-07T00:38:34.113Z,17.50
2022-08-07T00:41:02.399Z,17.40
2022-08-07T00:44:01.217Z,17.30
2022-08-07T00:46:18.225Z,17.10
2022-08-07T00:48:49.914Z,17.10
2022-08-07T00:51:21.526Z,17.00
2022-08-07T00:53:55.336Z,17.00
2022-08-07T00:56:30.083Z,17.00
2022-08-07T00:58:58.902Z,17.00
2022-08-07T01:01:27.036Z,16.90
2022-08-07T01:04:00.368Z,16.90
2022-08-07T01:06:30.199Z,17.00
2022-08-07T01:09:01.216Z,16.80
2022-08-07T01:12:23.262Z,16.70
2022-08-07T01:14:17.975Z,16.80
2022-08-07T01:16:51.372Z,16.80
2022-08-07T01:19:20.499Z,16.70
2022-08-07T01:21:53.418Z,16.70
2022-08-07T01:24:23.780Z,16.80
2022-08-07T01:26:53.954Z,16.80
2022-08-07T01:29:23.474Z,16.90
2022-08-07T01:31:59.400Z,16.80
2022-08-07T01:34:30.846Z,16.70
2022-08-07T01:37:01.372Z,16.70
2022-08-07T01:39:41.399Z,16.50
2022-08-07T01:42:38.653Z,16.60
2022-08-07T01:45:05.097Z,16.40
2022-08-07T01:48:18.254Z,16.50
2022-08-07T01:50:28.838Z,16.60
2022-08-07T01:53:01.402Z,16.30
2022-08-07T01:55:43.690Z,16.30
2022-08-07T01:58:29.193Z,16.30
2022-08-07T02:01:25.502Z,16.10
2022-08-07T02:04:02.059Z,16.00
2022-08-07T02:06:35.512Z,15.90
2022-08-07T02:09:07.656Z,15.80
2022-08-07T02:12:04.502Z,15.80
2022-08-07T02:14:40.432Z,15.90
2022-08-07T02:17:10.949Z,16.00
2022-08-07T02:20:04.403Z,16.00
2022-08-07T02:22:31.820Z,16.10
2022-08-07T02:25:02.532Z,16.00
2022-08-07T02:27:37.096Z,16.00
2022-08-07T02:30:10.707Z,16.00
2022-08-07T02:33:00.553Z,16.00
2022-08-07T02:36:29.968Z,16.00
2022-08-07T02:38:22.771Z,16.00
2022-08-07T02:40:59.147Z,16.00
2022-08-07T02:43:29.399Z,15.90
2022-08-07T02:46:00.758Z,15.90
2022-08-07T02:48:30.341Z,15.90
2022-08-07T02:51:00.341Z,15.90
2022-08-07T02:53:38.578Z,15.90
2022-08-07T02:56:21.092Z,16.00
2022-08-07T02:58:54.279Z,16.00
2022-08-07T03:01:36.245Z,15.90
2022-08-07T03:04:07.058Z,15.80
2022-08-07T03:06:38.843Z,15.70
2022-08-07T03:09:11.125Z,15.60
2022-08-07T03:11:51.505Z,15.60
2022-08-07T03:14:22.654Z,15.50
2022-08-07T03:16:52.391Z,15.50
2022-08-07T03:19:21.294Z,15.50
2022-08-07T03:21:51.027Z,15.50
2022-08-07T03:24:27.013Z,15.50
2022-08-07T03:27:00.261Z,15.40
2022-08-07T03:29:30.548Z,15.30
2022-08-07T03:31:59.156Z,15.30
2022-08-07T03:34:28.922Z,15.50
2022-08-07T03:36:58.984Z,15.40
2022-08-07T03:39:46.190Z,15.20
2022-08-07T03:42:20.902Z,15.10
2022-08-07T03:44:53.564Z,15.00
2022-08-07T03:47:27.865Z,14.90
2022-08-07T03:49:58.397Z,14.80
2022-08-07T03:52:29.005Z,14.70
2022-08-07T03:55:06.536Z,14.60
2022-08-07T03:59:04.835Z,14.60
2022-08-07T04:00:30.263Z,14.70
2022-08-07T04:03:04.066Z,14.70
2022-08-07T04:05:40.591Z,14.80
2022-08-07T04:08:12.663Z,14.70
2022-08-07T04:10:53.893Z,14.60
2022-08-07T04:13:28.539Z,14.50
2022-08-07T04:16:16.374Z,14.50
2022-08-07T04:19:01.683Z,14.40
2022-08-07T04:21:33.585Z,14.60
2022-08-07T04:24:07.549Z,14.60
2022-08-07T04:26:36.000Z,14.50
2022-08-07T04:29:07.122Z,14.60
2022-08-07T04:32:03.141Z,14.60
2022-08-07T04:34:33.264Z,14.60
2022-08-07T04:37:01.819Z,14.80
2022-08-07T04:39:35.614Z,14.90
2022-08-07T04:42:04.153Z,15.00
2022-08-07T04:44:33.700Z,15.20
2022-08-07T04:47:08.275Z,15.20
2022-08-07T04:50:03.662Z,15.30
2022-08-07T04:52:51.106Z,15.40
2022-08-07T04:58:12.230Z,15.30
2022-08-07T04:58:34.917Z,15.30
2022-08-07T05:01:18.665Z,15.30
2022-08-07T05:04:06.760Z,15.30
2022-08-07T05:06:43.264Z,15.40
2022-08-07T05:09:43.476Z,15.30
2022-08-07T05:12:26.729Z,15.40
2022-08-07T05:15:05.054Z,15.40
2022-08-07T05:17:51.697Z,15.50
2022-08-07T05:20:26.822Z,15.50
2022-08-07T05:23:00.526Z,15.60
2022-08-07T05:25:54.476Z,15.60
2022-08-07T05:28:22.976Z,15.80
2022-08-07T05:30:56.889Z,15.70
2022-08-07T05:33:28.130Z,15.70
2022-08-07T05:35:57.281Z,15.70
2022-08-07T05:39:00.226Z,15.70
2022-08-07T05:41:17.041Z,15.80
2022-08-07T05:44:08.326Z,15.80
2022-08-07T05:46:39.290Z,15.80
2022-08-07T05:49:12.398Z,15.80
2022-08-07T05:51:42.443Z,15.80
2022-08-07T05:54:30.109Z,15.80
2022-08-07T05:56:59.809Z,15.80
2022-08-07T05:59:28.522Z,15.80
2022-08-07T06:02:08.740Z,15.70
2022-08-07T06:04:42.781Z,15.80
2022-08-07T06:07:11.585Z,15.90
2022-08-07T06:10:05.579Z,15.90
2022-08-07T06:12:35.132Z,15.90
2022-08-07T06:15:05.689Z,15.90
2022-08-07T06:17:37.417Z,15.90
2022-08-07T06:20:12.566Z,15.90
2022-08-07T06:23:24.558Z,16.00
2022-08-07T06:25:54.083Z,16.10
2022-08-07T06:28:27.728Z,16.20
2022-08-07T06:30:56.389Z,16.10
2022-08-07T06:33:26.622Z,16.30
2022-08-07T06:36:12.338Z,16.40
2022-08-07T06:38:59.495Z,16.40
2022-08-07T06:42:01.923Z,16.50
2022-08-07T06:44:26.222Z,16.70
2022-08-07T06:47:10.642Z,16.90
2022-08-07T06:49:52.518Z,16.90
2022-08-07T06:52:35.263Z,17.00
2022-08-07T06:55:31.346Z,17.10
2022-08-07T06:57:59.768Z,17.30
2022-08-07T07:00:29.101Z,17.40
2022-08-07T07:03:00.918Z,17.40
2022-08-07T07:06:02.600Z,17.50
2022-08-07T07:08:25.742Z,17.60
2022-08-07T07:10:57.460Z,17.70
2022-08-07T07:13:57.350Z,17.80
2022-08-07T07:16:27.648Z,17.90
2022-08-07T07:19:33.965Z,18.00
2022-08-07T07:22:11.716Z,18.20
2022-08-07T07:25:02.418Z,18.30
2022-08-07T07:27:56.217Z,18.40
2022-08-07T07:30:38.705Z,18.60
2022-08-07T07:33:11.349Z,18.80
2022-08-07T07:35:54.513Z,19.00
2022-08-07T07:38:31.786Z,19.10
2022-08-07T07:41:04.406Z,19.30
2022-08-07T07:44:14.881Z,19.40
2022-08-07T07:46:37.546Z,19.50
2022-08-07T07:50:36.533Z,19.70
2022-08-07T07:52:12.763Z,19.90
2022-08-07T07:54:50.744Z,20.00
2022-08-07T07:57:43.963Z,20.20
2022-08-07T08:00:15.064Z,20.50
2022-08-07T08:03:05.589Z,20.80
2022-08-07T08:05:54.207Z,21.10
2022-08-07T08:08:34.581Z,21.50
2022-08-07T08:11:07.901Z,22.00
2022-08-07T08:13:54.332Z,22.50
2022-08-07T08:16:29.950Z,23.10
2022-08-07T08:19:09.631Z,23.60
2022-08-07T08:22:07.919Z,24.10
2022-08-07T08:25:18.169Z,24.80
2022-08-07T08:27:56.603Z,25.10
2022-08-07T08:30:28.706Z,25.70
2022-08-07T08:33:01.544Z,25.80
2022-08-07T08:35:42.858Z,26.20
2022-08-07T08:38:25.797Z,26.60
2022-08-07T08:41:03.536Z,27.10
2022-08-07T08:43:42.012Z,27.20
2022-08-07T08:46:20.538Z,27.40
2022-08-07T08:48:59.206Z,27.20
2022-08-07T08:52:12.370Z,27.70
2022-08-07T08:54:25.899Z,27.90
2022-08-07T08:56:55.685Z,28.00
2022-08-07T08:59:30.353Z,28.20
2022-08-07T09:02:16.728Z,28.40
2022-08-07T09:05:21.519Z,28.90
2022-08-07T09:07:58.784Z,28.90
2022-08-07T09:10:30.185Z,29.10
2022-08-07T09:13:06.885Z,29.30
2022-08-07T09:16:23.996Z,29.60
2022-08-07T09:18:58.636Z,29.90
2022-08-07T09:22:23.218Z,30.20
2022-08-07T09:24:59.328Z,30.00
2022-08-07T09:27:31.727Z,30.40
2022-08-07T09:30:20.711Z,30.30
2022-08-07T09:33:16.611Z,30.50
2022-08-07T09:36:07.625Z,30.40
2022-08-07T09:38:49.964Z,30.50
2022-08-07T09:41:36.347Z,30.80
2022-08-07T09:44:33.062Z,30.80
2022-08-07T09:47:51.888Z,31.10
2022-08-07T09:50:19.591Z,31.20
2022-08-07T09:52:53.932Z,31.50
2022-08-07T09:55:36.937Z,31.60
2022-08-07T09:58:42.147Z,31.60
2022-08-07T10:01:53.703Z,31.80
2022-08-07T10:04:28.339Z,31.80
2022-08-07T10:07:26.314Z,32.10
2022-08-07T10:10:11.892Z,32.20
2022-08-07T10:13:06.299Z,32.20
2022-08-07T10:15:59.133Z,32.30
2022-08-07T10:18:52.776Z,32.70
2022-08-07T10:22:12.157Z,32.90
2022-08-07T10:24:39.658Z,32.70
2022-08-07T10:27:46.395Z,32.80
2022-08-07T10:30:18.765Z,32.90
2022-08-07T10:33:09.216Z,33.10
2022-08-07T10:36:05.576Z,32.90
2022-08-07T10:38:51.732Z,32.80
2022-08-07T10:41:51.486Z,32.70
2022-08-07T10:44:39.085Z,32.90
2022-08-07T10:47:16.740Z,33.10
2022-08-07T10:49:51.874Z,33.20
2022-08-07T10:52:31.695Z,33.40
2022-08-07T10:55:27.073Z,33.70
2022-08-07T10:58:13.972Z,33.60
2022-08-07T11:00:56.347Z,33.50
2022-08-07T11:03:37.787Z,33.60
2022-08-07T11:06:26.810Z,33.70
2022-08-07T11:09:02.679Z,33.80
2022-08-07T11:11:35.750Z,34.20
2022-08-07T11:14:44.159Z,34.20
2022-08-07T11:17:07.305Z,34.20
2022-08-07T11:19:43.396Z,34.40
2022-08-07T11:22:33.279Z,34.40
2022-08-07T11:25:15.204Z,34.70
2022-08-07T11:28:03.138Z,34.40
2022-08-07T11:30:42.670Z,34.60
2022-08-07T11:33:19.819Z,34.40
2022-08-07T11:36:25.213Z,34.30
2022-08-07T11:39:07.627Z,34.50
2022-08-07T11:42:00.199Z,34.60
2022-08-07T11:44:40.558Z,34.10
2022-08-07T11:47:38.914Z,33.50
2022-08-07T11:50:35.201Z,33.70
2022-08-07T11:53:21.904Z,33.40
2022-08-07T11:56:09.383Z,33.30
2022-08-07T11:59:03.703Z,33.30
2022-08-07T12:02:00.036Z,33.40
2022-08-07T12:04:58.081Z,33.20
2022-08-07T12:07:39.104Z,32.90
2022-08-07T12:10:15.390Z,32.60
2022-08-07T12:12:47.767Z,32.50
2022-08-07T12:15:35.778Z,32.40
2022-08-07T12:18:22.102Z,32.40
2022-08-07T12:21:06.549Z,32.10
2022-08-07T12:24:07.053Z,31.70
2022-08-07T12:26:47.036Z,31.10
2022-08-07T12:29:38.491Z,30.90
2022-08-07T12:32:16.694Z,30.80
2022-08-07T12:34:49.181Z,30.50
2022-08-07T12:37:28.602Z,30.30
2022-08-07T12:40:44.123Z,30.10
2022-08-07T12:43:09.399Z,30.10
2022-08-07T12:45:44.437Z,30.20
2022-08-07T12:48:41.562Z,29.90
2022-08-07T12:51:20.589Z,29.60
2022-08-07T12:54:36.496Z,29.50
2022-08-07T12:56:51.534Z,29.40
2022-08-07T12:59:33.313Z,29.40
2022-08-07T13:02:33.505Z,29.30
2022-08-07T13:06:01.746Z,29.00
2022-08-07T13:08:18.809Z,29.00
2022-08-07T13:11:00.316Z,29.00
2022-08-07T13:13:48.669Z,29.10
2022-08-07T13:16:28.078Z,29.30
2022-08-07T13:19:18.092Z,29.40
2022-08-07T13:22:02.034Z,29.30
2022-08-07T13:24:52.201Z,29.30
2022-08-07T13:28:05.855Z,29.10
2022-08-07T13:30:18.967Z,29.30
2022-08-07T13:32:54.356Z,29.50
2022-08-07T13:36:00.867Z,29.40
2022-08-07T13:38:22.581Z,29.50
2022-08-07T13:41:02.205Z,29.60
2022-08-07T13:43:34.219Z,29.80
2022-08-07T13:46:10.949Z,29.70
2022-08-07T13:48:58.516Z,29.80
2022-08-07T13:52:22.300Z,29.80
2022-08-07T13:54:23.499Z,30.00
2022-08-07T13:56:59.922Z,29.90
2022-08-07T13:59:32.102Z,29.90
2022-08-07T14:02:08.373Z,30.20
2022-08-07T14:04:49.328Z,30.30
2022-08-07T14:07:22.928Z,30.30
2022-08-07T14:10:02.407Z,30.20
2022-08-07T14:12:55.050Z,30.00
2022-08-07T14:15:35.094Z,29.70
2022-08-07T14:18:27.258Z,29.70
2022-08-07T14:21:08.058Z,29.70
2022-08-07T14:24:00.943Z,29.70
2022-08-07T14:26:39.033Z,29.90
2022-08-07T14:30:05.871Z,30.00
2022-08-07T14:32:03.178Z,30.00
2022-08-07T14:34:34.844Z,30.10
2022-08-07T14:37:17.953Z,30.10
2022-08-07T14:40:16.665Z,30.00
2022-08-07T14:43:01.443Z,29.90
2022-08-07T14:48:21.024Z,29.90
2022-08-07T14:50:53.215Z,29.80
2022-08-07T14:56:14.053Z,30.00
2022-08-07T14:58:53.948Z,30.00
2022-08-07T15:01:28.547Z,29.90
2022-08-07T15:04:12.406Z,29.90
2022-08-07T15:09:59.209Z,29.90
2022-08-07T15:13:06.638Z,29.90
2022-08-07T15:15:22.498Z,29.80
2022-08-07T15:17:56.748Z,29.80
2022-08-07T15:20:33.238Z,29.80
2022-08-07T15:23:17.080Z,29.80
2022-08-07T15:25:56.654Z,29.80
2022-08-07T15:31:57.810Z,29.90
2022-08-07T15:34:15.001Z,29.90
2022-08-07T15:37:03.093Z,29.90
2022-08-07T15:42:49.597Z,29.80
2022-08-07T15:48:25.827Z,29.60
2022-08-07T15:51:07.809Z,29.60
2022-08-07T15:53:52.194Z,29.60
2022-08-07T15:56:33.167Z,29.50
2022-08-07T15:59:05.666Z,29.60
2022-08-07T16:01:39.299Z,29.50
2022-08-07T16:04:14.588Z,29.60
2022-08-07T16:06:49.898Z,29.50
2022-08-07T16:09:24.050Z,29.60
2022-08-07T16:12:37.905Z,29.50
2022-08-07T16:15:57.784Z,29.40
2022-08-07T16:18:49.353Z,29.30
2022-08-07T16:22:01.606Z,29.40
2022-08-07T16:24:33.813Z,29.20
2022-08-07T16:27:17.967Z,29.10
2022-08-07T16:30:31.853Z,29.00
2022-08-07T16:34:01.771Z,28.90
2022-08-07T16:36:23.011Z,28.80
2022-08-07T16:39:21.849Z,28.70
2022-08-07T16:42:36.619Z,28.60
2022-08-07T16:46:21.389Z,28.50
2022-08-07T16:48:37.691Z,28.50
2022-08-07T16:52:01.722Z,28.50
2022-08-07T16:54:34.532Z,28.40
2022-08-07T16:58:00.842Z,28.40
2022-08-07T17:00:29.908Z,28.30
2022-08-07T17:03:19.606Z,28.20
2022-08-07T17:06:30.151Z,28.20
2022-08-07T17:09:13.909Z,28.20
2022-08-07T17:12:01.450Z,28.20
2022-08-07T17:14:42.767Z,28.30
2022-08-07T17:17:44.061Z,28.50
2022-08-07T17:20:29.946Z,28.50
2022-08-07T17:23:03.901Z,28.40
2022-08-07T17:25:52.807Z,28.30
2022-08-07T17:28:31.318Z,28.20
2022-08-07T17:31:16.167Z,28.10
2022-08-07T17:34:17.938Z,28.00
2022-08-07T17:36:57.813Z,27.90
2022-08-07T17:39:57.728Z,27.80
2022-08-07T17:42:59.483Z,27.70
2022-08-07T17:45:31.652Z,27.60
2022-08-07T17:48:10.432Z,27.60
2022-08-07T17:51:01.754Z,27.50
2022-08-07T17:54:00.852Z,27.50
2022-08-07T17:56:31.805Z,27.30
2022-08-07T17:59:06.699Z,27.20
2022-08-07T18:01:45.513Z,27.20
2022-08-07T18:04:30.753Z,27.10
2022-08-07T18:07:20.424Z,27.10
2022-08-07T18:10:06.161Z,27.00
2022-08-07T18:12:49.446Z,27.00
2022-08-07T18:15:23.789Z,26.90
2022-08-07T18:18:46.178Z,26.80
2022-08-07T18:21:37.132Z,26.70
2022-08-07T18:24:01.650Z,26.60
2022-08-07T18:27:09.404Z,26.50
2022-08-07T18:30:06.172Z,26.50
2022-08-07T18:32:54.936Z,26.40
2022-08-07T18:35:51.700Z,26.30
2022-08-07T18:38:56.220Z,26.20
2022-08-07T18:41:44.708Z,26.20
2022-08-07T18:44:30.261Z,26.00
2022-08-07T18:47:06.175Z,26.00
2022-08-07T18:50:30.812Z,25.90
2022-08-07T18:52:53.756Z,25.80
2022-08-07T18:55:43.096Z,25.70
2022-08-07T18:58:51.767Z,25.70
2022-08-07T19:02:17.943Z,25.60
2022-08-07T19:04:37.935Z,25.40
2022-08-07T19:07:34.795Z,25.40
2022-08-07T19:10:10.958Z,25.30
2022-08-07T19:12:59.567Z,25.20
2022-08-07T19:16:04.666Z,25.10
2022-08-07T19:18:45.074Z,24.90
2022-08-07T19:21:46.567Z,24.80
2022-08-07T19:24:30.527Z,24.70
2022-08-07T19:28:56.539Z,24.70
2022-08-07T19:30:58.673Z,24.50
2022-08-07T19:32:51.277Z,24.40
2022-08-07T19:35:22.323Z,24.40
2022-08-07T19:37:58.178Z,24.30
2022-08-07T19:40:31.407Z,24.30
2022-08-07T19:43:02.608Z,24.20
2022-08-07T19:46:08.123Z,24.10
2022-08-07T19:48:43.586Z,24.20
2022-08-07T19:51:19.512Z,24.10
2022-08-07T19:54:31.046Z,24.10
2022-08-07T19:58:01.572Z,24.00
2022-08-07T19:59:41.279Z,23.80
2022-08-07T20:02:19.026Z,23.80
2022-08-07T20:04:56.134Z,23.60
2022-08-07T20:07:47.089Z,23.50
2022-08-07T20:10:35.583Z,23.40
2022-08-07T20:13:22.836Z,23.20
2022-08-07T20:15:54.037Z,23.10
2022-08-07T20:18:32.382Z,23.00
2022-08-07T20:21:14.856Z,22.90
2022-08-07T20:23:57.997Z,22.80
2022-08-07T20:26:32.671Z,22.60
2022-08-07T20:29:17.067Z,22.50
2022-08-07T20:32:06.166Z,22.40
2022-08-07T20:34:50.887Z,22.40
2022-08-07T20:37:25.038Z,22.30
2022-08-07T20:40:03.823Z,22.30
2022-08-07T20:42:34.451Z,22.30
2022-08-07T20:45:33.281Z,22.20
2022-08-07T20:47:58.670Z,22.20
2022-08-07T20:50:29.060Z,22.00
2022-08-07T20:53:00.209Z,22.00
2022-08-07T20:55:32.271Z,22.00
2022-08-07T20:58:19.160Z,21.90
2022-08-07T21:00:57.712Z,21.80
2022-08-07T21:03:27.566Z,21.80
2022-08-07T21:06:00.751Z,21.70
2022-08-07T21:08:36.562Z,21.70
2022-08-07T21:11:10.415Z,21.60
2022-08-07T21:14:20.147Z,21.60
2022-08-07T21:16:56.140Z,21.50
2022-08-07T21:19:32.139Z,21.50
2022-08-07T21:22:19.318Z,21.40
2022-08-07T21:25:12.208Z,21.40
2022-08-07T21:27:53.665Z,21.40
2022-08-07T21:30:29.900Z,21.30
2022-08-07T21:33:07.664Z,21.30
2022-08-07T21:36:05.321Z,21.30
2022-08-07T21:38:32.831Z,21.20
2022-08-07T21:41:10.841Z,21.00
2022-08-07T21:43:55.907Z,20.90
2022-08-07T21:46:32.973Z,20.90
2022-08-07T21:49:14.472Z,20.80
2022-08-07T21:51:54.813Z,20.80
2022-08-07T21:54:30.505Z,20.80
2022-08-07T21:57:30.959Z,20.60
2022-08-07T22:00:08.704Z,20.50
2022-08-07T22:02:44.302Z,20.40
2022-08-07T22:05:43.952Z,20.30
2022-08-07T22:08:06.605Z,20.30
2022-08-07T22:10:42.292Z,20.30
2022-08-07T22:13:15.815Z,20.20
2022-08-07T22:16:38.840Z,20.30
2022-08-07T22:18:43.252Z,20.40
2022-08-07T22:21:17.310Z,20.40
2022-08-07T22:23:54.040Z,20.30
2022-08-07T22:26:27.780Z,20.30
2022-08-07T22:29:08.875Z,20.20
2022-08-07T22:32:00.259Z,20.20
2022-08-07T22:34:53.752Z,20.20
2022-08-07T22:38:03.525Z,20.20
2022-08-07T22:40:28.305Z,20.10
2022-08-07T22:43:02.027Z,20.00
2022-08-07T22:46:40.701Z,20.00
2022-08-07T22:49:02.408Z,19.90
2022-08-07T22:52:00.940Z,19.90
2022-08-07T22:54:49.280Z,19.80
2022-08-07T22:57:41.926Z,19.70
2022-08-07T23:00:17.569Z,19.70
2022-08-07T23:03:09.349Z,19.80
2022-08-07T23:06:09.870Z,19.70
2022-08-07T23:08:51.528Z,19.60
2022-08-07T23:11:44.249Z,19.50
2022-08-07T23:14:30.928Z,19.50
2022-08-07T23:17:20.198Z,19.60
2022-08-07T23:20:14.817Z,19.60
2022-08-07T23:23:01.207Z,19.50
2022-08-07T23:25:42.543Z,19.40
2022-08-07T23:28:28.982Z,19.40
2022-08-07T23:31:18.762Z,19.50
2022-08-07T23:34:35.499Z,19.50
2022-08-07T23:37:31.758Z,19.30
2022-08-07T23:40:11.159Z,19.10
2022-08-07T23:42:55.888Z,19.00
2022-08-07T23:46:01.693Z,19.00
2022-08-07T23:48:36.845Z,19.00
2022-08-07T23:52:53.419Z,18.90
2022-08-07T23:54:11.536Z,18.90
2022-08-07T23:56:53.796Z,19.10
